Bluefin — WDE9397 — position and weather

sailwx.info

Track history (hours):
 
Tides and Currents Weather Stations Pressure Air Temp Water Temp Dewpoint Dewpoint Depression Visibility Wind Speed Wind Dir Waves Ship Positions

Bluefin

More information available from US FCC via Universal Licensing System and Coast Guard Vessel Documentation Center.

Last reported at 2014-Jul-30 08:32 UTC. Time now 2014-Jul-31 23:52 UTC.
Position N 39°51' W 075°14'.

Length 166 m; draft 4.7 m.

Type: Towing. MMSI: 367416750.

Date/timePositionNaut miles runAvg speedWind from/ knotsBaromVisibWave heightAir tempDewpointWater temp
2014-Jul-30 08:32N 39°51' W 075°14'0 0.0
2014-Jul-30 07:32N 39°51' W 075°14'0 0.0
2014-Jul-30 06:33N 39°51' W 075°14'0 0.0
2014-Jul-30 05:32N 39°51' W 075°14'0 0.0
2014-Jul-30 04:31N 39°51' W 075°14'0 0.0
2014-Jul-29 18:30N 39°51' W 075°14'54 2.3
2014-Jul-28 19:33N 39°28' W 074°11'1010.3
2014-Jul-28 18:34N 39°37' W 074°04'1010.1
2014-Jul-28 17:33N 39°46' W 073°59'2210.4
2014-Jul-28 15:26N 40°08' W 073°55'910.4
2014-Jul-28 14:32N 40°18' W 073°55'1010.2
2014-Jul-28 13:33N 40°28' W 073°53'9 9.1
2014-Jul-28 12:33N 40°34' W 074°02'10 9.4
2014-Jul-28 11:33N 40°43' W 074°01'1311.9
2014-Jul-28 10:26N 40°56' W 073°55'13 0.3
2014-Jul-26 17:33N 40°43' W 074°01'9 7.6
2014-Jul-26 16:23N 40°34' W 074°02'9 8.0
2014-Jul-26 15:16N 40°28' W 073°53'17 9.6
2014-Jul-26 13:31N 40°12' W 073°55'9 9.6
2014-Jul-26 12:33N 40°02' W 073°56'1010.0
2014-Jul-26 11:33N 39°52' W 073°58'10 9.9
2014-Jul-26 10:33N 39°43' W 074°01'1010.0
2014-Jul-26 09:33N 39°34' W 074°07'10 9.9
2014-Jul-26 08:33N 39°25' W 074°13'10 9.7
2014-Jul-26 07:33N 39°17' W 074°21'10 9.7
2014-Jul-26 06:33N 39°10' W 074°29'10 9.6
2014-Jul-26 05:33N 39°03' W 074°37'20 9.7
2014-Jul-26 03:30N 38°49' W 074°55'8 8.6
2014-Jul-26 02:33N 38°52' W 075°04'9 9.5
2014-Jul-26 01:33N 39°01' W 075°09'50 4.6
2014-Jul-25 14:32N 39°51' W 075°14'57 2.1
2014-Jul-24 11:32N 39°01' W 074°39'1010.7
2014-Jul-24 10:33N 39°08' W 074°29'1110.7
2014-Jul-24 09:31N 39°15' W 074°18'1010.6
2014-Jul-24 08:33N 39°21' W 074°08'1410.4
2014-Jul-24 07:14N 39°30' W 073°54'810.3
2014-Jul-24 06:30N 39°35' W 073°46'1010.3
2014-Jul-24 05:33N 39°41' W 073°37'1010.4
2014-Jul-24 04:33N 39°48' W 073°26'1110.4
2014-Jul-24 03:31N 39°55' W 073°15'1010.2
2014-Jul-24 02:33N 40°01' W 073°05'1010.2
2014-Jul-24 01:33N 40°07' W 072°55'1010.2
2014-Jul-24 00:33N 40°14' W 072°45'1010.2
2014-Jul-23 23:33N 40°21' W 072°35'1010.1
2014-Jul-23 22:33N 40°27' W 072°25'10 9.8
2014-Jul-23 21:33N 40°33' W 072°15'10 9.7
2014-Jul-23 20:33N 40°39' W 072°05'10 9.9
2014-Jul-23 19:33N 40°45' W 071°54'1010.3
2014-Jul-23 18:33N 40°52' W 071°44'1010.3
2014-Jul-23 17:33N 40°59' W 071°33'1010.5
2014-Jul-23 16:33N 41°06' W 071°24'1010.2
2014-Jul-23 15:33N 41°15' W 071°16'1010.2
2014-Jul-23 14:33N 41°23' W 071°08'1110.2
2014-Jul-23 13:29N 41°29' W 070°56'1010.5
2014-Jul-23 12:33N 41°34' W 070°44'18 8.3
2014-Jul-23 10:20N 41°48' W 070°28'810.3
2014-Jul-23 09:33N 41°56' W 070°27'5110.2
2014-Jul-23 04:34N 42°46' W 070°33'1110.8
2014-Jul-23 03:33N 42°57' W 070°39'12 0.5
2014-Jul-22 03:26N 43°07' W 070°48'0 0.0
2014-Jul-22 02:27N 43°07' W 070°48'1 1.5
2014-Jul-22 01:33N 43°06' W 070°47'5 5.3
2014-Jul-22 00:33N 43°02' W 070°41'8 7.9
2014-Jul-21 23:34N 42°55' W 070°38'9 8.9
2014-Jul-21 22:33N 42°46' W 070°34'25 9.2
2014-Jul-21 19:51N 42°22' W 070°29'3 9.6
2014-Jul-21 19:32N 42°19' W 070°28'9 9.3
2014-Jul-21 18:33N 42°09' W 070°28'10 9.5
2014-Jul-21 17:33N 41°60' W 070°27'9 9.5
2014-Jul-21 16:33N 41°51' W 070°28'8 6.8
2014-Jul-21 15:26N 41°45' W 070°35'6 6.9
2014-Jul-21 14:33N 41°41' W 070°41'  
Track history (hours):
 
Tides and Currents Weather Stations Pressure Air Temp Water Temp Dewpoint Dewpoint Depression Visibility Wind Speed Wind Dir Waves Ship Positions

Bluefin

More information available from US FCC via Universal Licensing System and Coast Guard Vessel Documentation Center.

Last reported at 2014-Jul-30 08:32 UTC. Time now 2014-Jul-31 23:52 UTC.
Position N 39°51' W 075°14'.

Length 166 m; draft 4.7 m.

Type: Towing. MMSI: 367416750.

Date/timePositionNaut miles runAvg speedWind from/ knotsBaromVisibWave heightAir tempDewpointWater temp
2014-Jul-30 08:32N 39°51' W 075°14'0 0.0
2014-Jul-30 07:32N 39°51' W 075°14'0 0.0
2014-Jul-30 06:33N 39°51' W 075°14'0 0.0
2014-Jul-30 05:32N 39°51' W 075°14'0 0.0
2014-Jul-30 04:31N 39°51' W 075°14'0 0.0
2014-Jul-29 18:30N 39°51' W 075°14'54 2.3
2014-Jul-28 19:33N 39°28' W 074°11'1010.3
2014-Jul-28 18:34N 39°37' W 074°04'1010.1
2014-Jul-28 17:33N 39°46' W 073°59'2210.4
2014-Jul-28 15:26N 40°08' W 073°55'910.4
2014-Jul-28 14:32N 40°18' W 073°55'1010.2
2014-Jul-28 13:33N 40°28' W 073°53'9 9.1
2014-Jul-28 12:33N 40°34' W 074°02'10 9.4
2014-Jul-28 11:33N 40°43' W 074°01'1311.9
2014-Jul-28 10:26N 40°56' W 073°55'13 0.3
2014-Jul-26 17:33N 40°43' W 074°01'9 7.6
2014-Jul-26 16:23N 40°34' W 074°02'9 8.0
2014-Jul-26 15:16N 40°28' W 073°53'17 9.6
2014-Jul-26 13:31N 40°12' W 073°55'9 9.6
2014-Jul-26 12:33N 40°02' W 073°56'1010.0
2014-Jul-26 11:33N 39°52' W 073°58'10 9.9
2014-Jul-26 10:33N 39°43' W 074°01'1010.0
2014-Jul-26 09:33N 39°34' W 074°07'10 9.9
2014-Jul-26 08:33N 39°25' W 074°13'10 9.7
2014-Jul-26 07:33N 39°17' W 074°21'10 9.7
2014-Jul-26 06:33N 39°10' W 074°29'10 9.6
2014-Jul-26 05:33N 39°03' W 074°37'20 9.7
2014-Jul-26 03:30N 38°49' W 074°55'8 8.6
2014-Jul-26 02:33N 38°52' W 075°04'9 9.5
2014-Jul-26 01:33N 39°01' W 075°09'50 4.6
2014-Jul-25 14:32N 39°51' W 075°14'57 2.1
2014-Jul-24 11:32N 39°01' W 074°39'1010.7
2014-Jul-24 10:33N 39°08' W 074°29'1110.7
2014-Jul-24 09:31N 39°15' W 074°18'1010.6
2014-Jul-24 08:33N 39°21' W 074°08'1410.4
2014-Jul-24 07:14N 39°30' W 073°54'810.3
2014-Jul-24 06:30N 39°35' W 073°46'1010.3
2014-Jul-24 05:33N 39°41' W 073°37'1010.4
2014-Jul-24 04:33N 39°48' W 073°26'1110.4
2014-Jul-24 03:31N 39°55' W 073°15'1010.2
2014-Jul-24 02:33N 40°01' W 073°05'1010.2
2014-Jul-24 01:33N 40°07' W 072°55'1010.2
2014-Jul-24 00:33N 40°14' W 072°45'1010.2
2014-Jul-23 23:33N 40°21' W 072°35'1010.1
2014-Jul-23 22:33N 40°27' W 072°25'10 9.8
2014-Jul-23 21:33N 40°33' W 072°15'10 9.7
2014-Jul-23 20:33N 40°39' W 072°05'10 9.9
2014-Jul-23 19:33N 40°45' W 071°54'1010.3
2014-Jul-23 18:33N 40°52' W 071°44'1010.3
2014-Jul-23 17:33N 40°59' W 071°33'1010.5
2014-Jul-23 16:33N 41°06' W 071°24'1010.2
2014-Jul-23 15:33N 41°15' W 071°16'1010.2
2014-Jul-23 14:33N 41°23' W 071°08'1110.2
2014-Jul-23 13:29N 41°29' W 070°56'1010.5
2014-Jul-23 12:33N 41°34' W 070°44'18 8.3
2014-Jul-23 10:20N 41°48' W 070°28'810.3
2014-Jul-23 09:33N 41°56' W 070°27'5110.2
2014-Jul-23 04:34N 42°46' W 070°33'1110.8
2014-Jul-23 03:33N 42°57' W 070°39'12 0.5
2014-Jul-22 03:26N 43°07' W 070°48'0 0.0
2014-Jul-22 02:27N 43°07' W 070°48'1 1.5
2014-Jul-22 01:33N 43°06' W 070°47'5 5.3
2014-Jul-22 00:33N 43°02' W 070°41'8 7.9
2014-Jul-21 23:34N 42°55' W 070°38'9 8.9
2014-Jul-21 22:33N 42°46' W 070°34'25 9.2
2014-Jul-21 19:51N 42°22' W 070°29'3 9.6
2014-Jul-21 19:32N 42°19' W 070°28'9 9.3
2014-Jul-21 18:33N 42°09' W 070°28'10 9.5
2014-Jul-21 17:33N 41°60' W 070°27'9 9.5
2014-Jul-21 16:33N 41°51' W 070°28'8 6.8
2014-Jul-21 15:26N 41°45' W 070°35'6 6.9
2014-Jul-21 14:33N 41°41' W 070°41'  

Dump ship's entire track history